CST,Max TemperatureF,Mean TemperatureF,Min TemperatureF,Max Dew PointF,MeanDew PointF,Min DewpointF,Max Humidity, Mean Humidity, Min Humidity, Max Sea Level PressureIn, Mean Sea Level PressureIn, Min Sea Level PressureIn, Max VisibilityMiles, Mean VisibilityMiles, Min VisibilityMiles, Max Wind SpeedMPH, Mean Wind SpeedMPH, Max Gust SpeedMPH,PrecipitationIn, CloudCover, Events, WindDirDegrees
2012-11-1,92,74,55,70,58,51,93,68,26,30.09,30.03,29.97,10,5,0,8,1,,0.00,4,Fog,213
2012-11-2,92,74,55,68,58,51,93,68,28,30.06,30.02,29.96,10,6,0,10,2,21,0.00,4,Fog,185
2012-11-3,87,74,60,73,63,57,96,83,40,30.10,30.06,30.01,10,7,0,12,2,12,0.26,4,Fog-Rain-Thunderstorm,165
2012-11-4,86,73,60,68,62,58,98,79,43,30.11,30.06,30.01,10,8,2,8,1,,0.10,2,Rain-Thunderstorm,53
2012-11-5,88,74,59,68,61,55,96,72,37,30.07,30.01,29.93,10,7,0,10,2,20,0.03,5,Fog-Rain-Thunderstorm,304
2012-11-6,77,63,48,56,43,36,80,53,24,30.16,30.10,30.03,10,10,5,12,3,16,0.00,1,,339
2012-11-7,86,66,47,55,44,36,89,54,17,30.19,30.12,30.07,10,10,3,5,1,,0.00,0,,90
2012-11-8,85,68,50,64,54,43,97,69,33,30.19,30.13,30.09,10,8,2,14,3,20,0.00,0,,134
2012-11-9,84,70,57,69,58,53,93,71,39,30.14,30.10,30.05,10,10,7,16,5,24,0.00,1,,146
2012-11-10,85,70,56,69,62,54,95,69,39,30.10,30.03,29.97,10,10,1,16,5,25,0.00,4,Rain,158
2012-11-11,84,72,60,70,66,54,91,75,54,30.14,29.97,29.90,10,9,7,16,8,25,0.00,6,Rain,176
2012-11-12,68,58,48,54,41,30,84,54,25,30.44,30.33,30.15,10,10,5,16,10,23,0.02,4,Rain,11
2012-11-13,60,51,42,37,30,22,71,47,24,30.48,30.40,30.32,10,10,10,16,6,24,0.00,0,,37
2012-11-14,62,51,38,39,34,28,93,53,27,30.42,30.34,30.28,10,10,10,8,4,,0.00,5,,25
2012-11-15,67,52,38,45,37,30,95,59,26,30.33,30.28,30.21,10,10,2,8,2,,0.00,2,,51
2012-11-16,67,55,41,45,36,31,92,54,25,30.36,30.31,30.26,10,10,7,13,4,18,0.00,2,,35
2012-11-17,70,54,38,42,36,29,93,64,22,30.39,30.33,30.29,10,10,7,8,1,,0.00,0,,63
2012-11-18,74,56,37,48,43,36,98,70,30,30.33,30.28,30.22,10,8,0,9,2,,0.00,0,Fog,104
2012-11-19,75,58,42,56,48,40,99,73,29,30.28,30.22,30.16,10,8,0,9,1,,0.00,1,Fog,122
2012-11-20,78,63,48,65,54,49,100,78,39,30.25,30.19,30.13,10,7,0,8,1,,0.00,3,Fog,199
2012-11-21,82,64,47,63,52,38,100,75,21,30.28,30.21,30.15,10,7,0,8,1,,0.00,2,Fog,82
2012-11-22,78,62,46,65,53,46,100,79,37,30.22,30.16,30.11,10,5,0,10,2,17,0.00,4,Fog,166
2012-11-23,78,66,54,67,59,46,100,81,53,30.33,30.23,30.15,10,8,0,13,3,20,0.08,8,Fog-Rain-Thunderstorm,359
2012-11-24,64,52,41,48,33,26,87,48,23,30.39,30.29,30.19,10,10,5,14,7,21,0.00,2,,25
2012-11-25,76,56,37,62,50,36,99,79,46,30.18,30.07,29.98,10,9,0,12,2,16,0.00,2,Fog,152
2012-11-26,83,68,54,72,63,54,100,85,48,30.08,30.00,29.95,10,6,0,13,2,22,0.00,6,Fog,204
2012-11-27,69,56,42,67,49,42,98,76,64,30.35,30.25,30.07,10,9,1,14,8,23,0.00,6,Rain,346
2012-11-28,68,53,38,46,40,34,100,74,30,30.47,30.36,30.30,10,8,0,9,2,,0.00,0,Fog,78
2012-11-29,70,54,37,59,51,37,99,83,55,30.31,30.24,30.17,10,8,4,10,3,,0.00,4,,98
2012-11-30,77,68,60,66,64,60,99,88,66,30.19,30.14,30.09,10,8,3,14,4,20,0.00,6,Rain,133